createdAt,value
2023-03-29T00:02:33.664Z,97731.53
2023-03-29T00:05:43.803Z,97728.03
2023-03-29T00:08:46.548Z,97735.72
2023-03-29T00:11:49.286Z,97758.09
2023-03-29T00:14:53.599Z,97749.41
2023-03-29T00:17:57.445Z,97754.41
2023-03-29T00:21:01.885Z,97755.41
2023-03-29T00:24:09.851Z,97757.69
2023-03-29T00:27:12.932Z,97752.06
2023-03-29T00:30:16.049Z,97761.09
2023-03-29T00:33:20.911Z,97758.44
2023-03-29T00:36:25.025Z,97762.53
2023-03-29T00:39:28.294Z,97767.41
2023-03-29T00:42:31.062Z,97777.06
2023-03-29T00:45:36.044Z,97778.28
2023-03-29T00:48:39.448Z,97772.94
2023-03-29T00:51:43.970Z,97770.28
2023-03-29T00:54:48.736Z,97770.28
2023-03-29T00:57:52.510Z,97764.31
2023-03-29T01:01:02.138Z,97764.31
2023-03-29T01:04:08.565Z,97761.03
2023-03-29T01:07:18.013Z,97770.69
2023-03-29T01:10:22.798Z,97770.69
2023-03-29T01:13:28.272Z,97777.69
2023-03-29T01:16:33.127Z,97785.28
2023-03-29T01:19:41.812Z,97793.28
2023-03-29T01:22:54.752Z,97794.31
2023-03-29T01:26:03.041Z,97790.00
2023-03-29T01:29:14.034Z,97793.47
2023-03-29T01:32:19.714Z,97799.44
2023-03-29T01:35:23.752Z,97788.97
2023-03-29T01:38:32.146Z,97790.63
2023-03-29T01:41:37.771Z,97788.44
2023-03-29T01:44:49.830Z,97787.94
2023-03-29T01:47:56.979Z,97785.91
2023-03-29T01:51:04.471Z,97793.78
2023-03-29T01:54:09.528Z,97796.03
2023-03-29T01:57:15.790Z,97798.25
2023-03-29T02:00:25.872Z,97794.81
2023-03-29T02:03:31.882Z,97798.44
2023-03-29T02:06:36.092Z,97805.63
2023-03-29T02:09:39.845Z,97801.94
2023-03-29T02:12:42.706Z,97808.09
2023-03-29T02:15:49.378Z,97818.22
2023-03-29T02:18:53.394Z,97808.75
2023-03-29T02:22:01.600Z,97812.88
2023-03-29T02:25:07.436Z,97819.84
2023-03-29T02:28:10.605Z,97834.66
2023-03-29T02:31:17.392Z,97845.53
2023-03-29T02:34:22.562Z,97855.56
2023-03-29T02:37:26.787Z,97864.22
2023-03-29T02:40:29.968Z,97861.72
2023-03-29T02:43:37.953Z,97868.91
2023-03-29T02:46:42.975Z,97869.28
2023-03-29T02:49:51.973Z,97879.59
2023-03-29T02:52:56.885Z,97880.63
2023-03-29T02:56:02.344Z,97891.28
2023-03-29T02:59:08.028Z,97890.00
2023-03-29T03:02:13.791Z,97896.28
2023-03-29T03:05:17.619Z,97899.16
2023-03-29T03:08:20.620Z,97892.53
2023-03-29T03:11:24.068Z,97897.22
2023-03-29T03:14:28.342Z,97902.09
2023-03-29T03:17:33.352Z,97918.19
2023-03-29T03:20:36.242Z,97913.25
2023-03-29T03:23:46.431Z,97913.44
2023-03-29T03:26:50.122Z,97913.88
2023-03-29T03:29:55.766Z,97921.53
2023-03-29T03:32:59.952Z,97930.53
2023-03-29T03:36:07.689Z,97916.81
2023-03-29T03:39:11.882Z,97913.88
2023-03-29T03:42:14.689Z,97923.38
2023-03-29T03:45:17.513Z,97926.84
2023-03-29T03:48:21.649Z,97925.38
2023-03-29T03:51:27.212Z,97926.84
2023-03-29T03:54:30.109Z,97913.03
2023-03-29T03:57:33.387Z,97921.06
2023-03-29T04:00:36.204Z,97930.53
2023-03-29T04:03:41.221Z,97936.88
2023-03-29T04:06:45.334Z,97942.19
2023-03-29T04:09:53.068Z,97946.56
2023-03-29T04:12:56.765Z,97941.56
2023-03-29T04:16:01.750Z,97958.31
2023-03-29T04:19:06.244Z,97961.72
2023-03-29T04:22:09.119Z,97957.69
2023-03-29T04:25:11.932Z,97971.03
2023-03-29T04:28:15.724Z,97966.81
2023-03-29T04:31:18.552Z,97956.88
2023-03-29T04:34:22.680Z,97964.59
2023-03-29T04:37:25.379Z,97961.28
2023-03-29T04:40:29.134Z,97972.25
2023-03-29T04:43:33.547Z,97969.38
2023-03-29T04:46:40.405Z,97970.75
2023-03-29T04:49:46.560Z,97971.22
2023-03-29T04:52:50.912Z,97970.22
2023-03-29T04:56:00.309Z,97981.22
2023-03-29T04:59:03.055Z,97984.38
2023-03-29T05:02:05.853Z,97986.22
2023-03-29T05:05:10.592Z,97990.09
2023-03-29T05:08:13.372Z,98001.41
2023-03-29T05:11:16.733Z,98004.06
2023-03-29T05:14:19.664Z,98004.25
2023-03-29T05:17:22.765Z,98004.59
2023-03-29T05:20:26.914Z,98006.09
2023-03-29T05:23:29.988Z,98012.16
2023-03-29T05:26:32.764Z,98009.50
2023-03-29T05:29:35.542Z,98015.19
2023-03-29T05:32:43.970Z,98017.56
2023-03-29T05:35:48.460Z,98022.56
2023-03-29T05:38:51.599Z,98021.72
2023-03-29T05:41:54.986Z,98034.59
2023-03-29T05:44:58.788Z,98038.56
2023-03-29T05:48:02.045Z,98034.22
2023-03-29T05:51:06.643Z,98035.06
2023-03-29T05:54:11.653Z,98040.00
2023-03-29T05:57:14.508Z,98047.56
2023-03-29T06:00:25.888Z,98063.19
2023-03-29T06:03:31.607Z,98071.19
2023-03-29T06:06:36.907Z,98072.84
2023-03-29T06:09:42.663Z,98065.50
2023-03-29T06:12:45.642Z,98081.69
2023-03-29T06:15:48.428Z,98089.22
2023-03-29T06:18:55.336Z,98090.69
2023-03-29T06:21:59.500Z,98087.38
2023-03-29T06:25:02.593Z,98100.53
2023-03-29T06:28:06.126Z,98105.06
2023-03-29T06:31:10.229Z,98105.59
2023-03-29T06:34:13.876Z,98106.44
2023-03-29T06:37:24.305Z,98114.16
2023-03-29T06:40:27.469Z,98117.25
2023-03-29T06:43:34.899Z,98118.09
2023-03-29T06:46:39.669Z,98116.25
2023-03-29T06:49:42.508Z,98119.28
2023-03-29T06:52:47.121Z,98126.28
2023-03-29T06:55:50.828Z,98140.00
2023-03-29T06:58:57.946Z,98146.78
2023-03-29T07:02:00.785Z,98151.69
2023-03-29T07:05:07.069Z,98156.63
2023-03-29T07:08:15.421Z,98168.97
2023-03-29T07:11:19.002Z,98161.97
2023-03-29T07:14:21.732Z,98164.44
2023-03-29T07:17:24.571Z,98175.94
2023-03-29T07:20:27.675Z,98181.47
2023-03-29T07:23:34.745Z,98189.00
2023-03-29T07:26:46.125Z,98204.28
2023-03-29T07:29:56.987Z,98203.44
2023-03-29T07:33:02.252Z,98213.66
2023-03-29T07:36:06.162Z,98217.69
2023-03-29T07:39:12.916Z,98224.31
2023-03-29T07:42:15.723Z,98233.97
2023-03-29T07:45:20.532Z,98220.00
2023-03-29T07:48:29.887Z,98193.03
2023-03-29T07:51:32.699Z,98199.19
2023-03-29T07:54:38.241Z,98212.34
2023-03-29T07:57:43.799Z,98205.34
2023-03-29T08:00:49.253Z,98210.22
2023-03-29T08:03:52.338Z,98208.41
2023-03-29T08:06:55.367Z,98214.38
2023-03-29T08:09:59.561Z,98204.41
2023-03-29T08:13:05.044Z,98223.72
2023-03-29T08:16:10.253Z,98225.22
2023-03-29T08:19:14.223Z,98224.22
2023-03-29T08:22:17.029Z,98248.84
2023-03-29T08:25:24.214Z,98232.22
2023-03-29T08:28:28.266Z,98252.53
2023-03-29T08:31:36.717Z,98252.53
2023-03-29T08:34:39.533Z,98256.41
2023-03-29T08:37:42.362Z,98262.75
2023-03-29T08:40:48.903Z,98280.03
2023-03-29T08:43:58.247Z,98274.25
2023-03-29T08:47:07.590Z,98275.22
2023-03-29T08:50:17.595Z,98278.06
2023-03-29T08:53:22.476Z,98285.41
2023-03-29T08:56:28.238Z,98287.06
2023-03-29T08:59:34.758Z,98287.94
2023-03-29T09:02:38.007Z,98288.75
2023-03-29T09:05:45.637Z,98290.41
2023-03-29T09:08:49.174Z,98296.75
2023-03-29T09:12:06.142Z,98290.28
2023-03-29T09:15:12.742Z,98300.13
2023-03-29T09:18:21.330Z,98302.44
2023-03-29T09:21:29.375Z,98322.44
2023-03-29T09:24:45.552Z,98308.13
2023-03-29T09:27:55.202Z,98320.28
2023-03-29T09:31:03.915Z,98323.94
2023-03-29T09:34:13.648Z,98331.78
2023-03-29T09:37:22.686Z,98337.09
2023-03-29T09:40:27.775Z,98333.06
2023-03-29T09:43:33.361Z,98340.78
2023-03-29T09:46:39.378Z,98344.44
2023-03-29T09:49:44.677Z,98346.13
2023-03-29T09:52:47.947Z,98346.13
2023-03-29T09:55:52.019Z,98337.81
2023-03-29T09:58:56.551Z,98333.94
2023-03-29T10:02:06.639Z,98341.75
2023-03-29T10:05:10.381Z,98354.63
2023-03-29T10:08:18.224Z,98347.28
2023-03-29T10:11:24.317Z,98362.44
2023-03-29T10:14:33.464Z,98361.09
2023-03-29T10:17:40.788Z,98376.09
2023-03-29T10:20:43.615Z,98381.59
2023-03-29T10:23:48.126Z,98386.47
2023-03-29T10:26:55.718Z,98392.84
2023-03-29T10:30:01.334Z,98400.19
2023-03-29T10:36:18.661Z,98422.16
2023-03-29T10:39:21.749Z,98426.81
2023-03-29T10:42:25.556Z,98438.84
2023-03-29T10:45:31.957Z,98444.19
2023-03-29T10:48:36.080Z,98443.69
2023-03-29T10:51:38.852Z,98452.19
2023-03-29T10:54:42.081Z,98450.53
2023-03-29T10:57:51.159Z,98448.03
2023-03-29T11:00:59.685Z,98448.50
2023-03-29T11:04:09.372Z,98450.53
2023-03-29T11:07:27.957Z,98441.03
2023-03-29T11:10:38.540Z,98450.03
2023-03-29T11:13:46.464Z,98465.53
2023-03-29T11:16:54.637Z,98461.31
2023-03-29T11:20:06.929Z,98463.34
2023-03-29T11:23:18.900Z,98467.00
2023-03-29T11:26:25.784Z,98466.16
2023-03-29T11:29:32.004Z,98475.63
2023-03-29T11:32:42.128Z,98478.97
2023-03-29T11:35:56.163Z,98479.97
2023-03-29T11:39:05.505Z,98485.47
2023-03-29T11:42:15.569Z,98486.97
2023-03-29T11:45:26.209Z,98497.28
2023-03-29T11:48:32.743Z,98504.47
2023-03-29T11:51:38.254Z,98497.47
2023-03-29T11:54:44.853Z,98497.13
2023-03-29T11:57:50.894Z,98491.78
2023-03-29T12:00:57.000Z,98505.13
2023-03-29T12:04:07.897Z,98500.63
2023-03-29T12:07:15.766Z,98505.13
2023-03-29T12:10:22.007Z,98506.78
2023-03-29T12:13:27.492Z,98508.44
2023-03-29T12:16:33.173Z,98511.44
2023-03-29T12:19:43.743Z,98511.28
2023-03-29T12:22:51.394Z,98518.63
2023-03-29T12:25:58.316Z,98522.78
2023-03-29T12:29:08.894Z,98527.44
2023-03-29T12:32:22.809Z,98525.78
2023-03-29T12:35:37.876Z,98521.47
2023-03-29T12:38:41.944Z,98530.28
2023-03-29T12:41:49.099Z,98536.63
2023-03-29T12:44:54.518Z,98543.63
2023-03-29T12:47:57.786Z,98543.78
2023-03-29T12:51:03.368Z,98550.09
2023-03-29T12:54:08.568Z,98558.91
2023-03-29T12:57:20.715Z,98564.94
2023-03-29T13:00:27.334Z,98565.25
2023-03-29T13:03:35.865Z,98566.91
2023-03-29T13:07:02.859Z,98581.94
2023-03-29T13:10:08.805Z,98584.44
2023-03-29T13:13:24.448Z,98592.59
2023-03-29T13:16:30.849Z,98601.91
2023-03-29T13:19:36.050Z,98601.72
2023-03-29T13:22:44.765Z,98611.72
2023-03-29T13:25:56.673Z,98617.25
2023-03-29T13:29:20.513Z,98618.91
2023-03-29T13:32:34.721Z,98612.06
2023-03-29T13:35:44.142Z,98619.06
2023-03-29T13:38:49.812Z,98615.06
2023-03-29T13:41:53.619Z,98612.56
2023-03-29T13:45:09.130Z,98622.75
2023-03-29T13:48:22.923Z,98620.72
2023-03-29T13:51:34.012Z,98618.72
2023-03-29T13:54:43.179Z,98621.22
2023-03-29T13:57:52.679Z,98623.88
2023-03-29T14:01:09.186Z,98624.88
2023-03-29T14:04:14.956Z,98621.38
2023-03-29T14:07:20.022Z,98626.53
2023-03-29T14:10:27.280Z,98624.72
2023-03-29T14:13:30.466Z,98628.72
2023-03-29T14:16:36.951Z,98624.88
2023-03-29T14:19:42.522Z,98628.72
2023-03-29T14:22:45.548Z,98633.53
2023-03-29T14:25:50.718Z,98639.03
2023-03-29T14:28:56.605Z,98635.53
2023-03-29T14:32:09.167Z,98640.88
2023-03-29T14:35:13.069Z,98637.38
2023-03-29T14:38:16.560Z,98644.38
2023-03-29T14:41:23.192Z,98644.72
2023-03-29T14:44:28.468Z,98647.38
2023-03-29T14:47:32.032Z,98648.34
2023-03-29T14:50:35.104Z,98645.69
2023-03-29T14:53:39.035Z,98641.22
2023-03-29T14:56:43.443Z,98645.69
2023-03-29T14:59:51.101Z,98649.34
2023-03-29T15:03:03.708Z,98660.34
2023-03-29T15:06:06.975Z,98666.50
2023-03-29T15:09:17.051Z,98668.50
2023-03-29T15:12:21.370Z,98674.66
2023-03-29T15:15:25.818Z,98675.81
2023-03-29T15:18:31.165Z,98682.97
2023-03-29T15:21:35.002Z,98682.31
2023-03-29T15:24:43.023Z,98692.97
2023-03-29T15:27:50.021Z,98691.47
2023-03-29T15:31:06.811Z,98703.13
2023-03-29T15:34:12.632Z,98703.13
2023-03-29T15:37:15.670Z,98708.50
2023-03-29T15:40:20.252Z,98714.94
2023-03-29T15:43:24.697Z,98722.44
2023-03-29T15:46:27.583Z,98724.28
2023-03-29T15:49:31.452Z,98726.59
2023-03-29T15:52:34.387Z,98722.28
2023-03-29T15:55:37.415Z,98730.28
2023-03-29T15:58:44.222Z,98730.28
2023-03-29T16:01:49.776Z,98730.47
2023-03-29T16:04:53.672Z,98732.66
2023-03-29T16:07:57.800Z,98739.25
2023-03-29T16:11:00.532Z,98740.72
2023-03-29T16:14:07.863Z,98747.91
2023-03-29T16:17:10.967Z,98748.88
2023-03-29T16:20:20.143Z,98756.88
2023-03-29T16:23:22.946Z,98759.19
2023-03-29T16:26:26.743Z,98766.50
2023-03-29T16:29:32.339Z,98770.47
2023-03-29T16:32:35.191Z,98774.50
2023-03-29T16:35:40.156Z,98775.50
2023-03-29T16:38:43.272Z,98770.50
2023-03-29T16:41:48.537Z,98773.88
2023-03-29T16:44:52.718Z,98780.31
2023-03-29T16:47:56.197Z,98787.84
2023-03-29T16:51:00.236Z,98798.50
2023-03-29T16:54:03.089Z,98811.16
2023-03-29T16:57:07.230Z,98820.66
2023-03-29T17:00:14.255Z,98819.16
2023-03-29T17:03:17.319Z,98815.13
2023-03-29T17:06:20.424Z,98813.28
2023-03-29T17:09:23.175Z,98820.28
2023-03-29T17:12:25.963Z,98826.09
2023-03-29T17:15:30.163Z,98823.75
2023-03-29T17:18:33.075Z,98823.06
2023-03-29T17:21:35.878Z,98820.09
2023-03-29T17:24:38.636Z,98816.91
2023-03-29T17:27:41.492Z,98827.88
2023-03-29T17:30:47.207Z,98820.25
2023-03-29T17:33:52.164Z,98827.25
2023-03-29T17:36:56.927Z,98837.06
2023-03-29T17:39:59.766Z,98839.56
2023-03-29T17:43:03.721Z,98836.38
2023-03-29T17:46:10.571Z,98838.69
2023-03-29T17:49:14.489Z,98845.22
2023-03-29T17:52:17.280Z,98838.53
2023-03-29T17:55:21.108Z,98841.72
2023-03-29T17:58:23.964Z,98844.53
2023-03-29T18:01:29.472Z,98838.16
2023-03-29T18:04:32.768Z,98851.16
2023-03-29T18:07:35.602Z,98847.66
2023-03-29T18:10:38.398Z,98856.31
2023-03-29T18:13:41.447Z,98852.00
2023-03-29T18:16:45.857Z,98845.00
2023-03-29T18:19:48.651Z,98849.63
2023-03-29T18:22:51.494Z,98843.59
2023-03-29T18:25:59.434Z,98847.25
2023-03-29T18:29:02.284Z,98844.94
2023-03-29T18:32:07.223Z,98847.25
2023-03-29T18:35:10.762Z,98852.59
2023-03-29T18:38:14.396Z,98854.97
2023-03-29T18:41:17.212Z,98860.44
2023-03-29T18:44:21.871Z,98865.59
2023-03-29T18:47:26.111Z,98865.22
2023-03-29T18:50:28.986Z,98865.56
2023-03-29T18:53:31.712Z,98865.22
2023-03-29T18:56:35.503Z,98871.94
2023-03-29T18:59:40.111Z,98873.91
2023-03-29T19:02:44.358Z,98876.44
2023-03-29T19:05:52.824Z,98876.88
2023-03-29T19:08:58.298Z,98873.75
2023-03-29T19:12:15.093Z,98874.88
2023-03-29T19:15:18.045Z,98877.56
2023-03-29T19:18:25.132Z,98882.22
2023-03-29T19:21:31.715Z,98885.16
2023-03-29T19:24:34.519Z,98884.31
2023-03-29T19:27:37.403Z,98886.16
2023-03-29T19:30:40.863Z,98889.97
2023-03-29T19:33:44.957Z,98891.25
2023-03-29T19:36:47.727Z,98893.94
2023-03-29T19:39:54.670Z,98890.28
2023-03-29T19:42:57.473Z,98890.44
2023-03-29T19:46:06.004Z,98894.75
2023-03-29T19:49:13.708Z,98889.44
2023-03-29T19:52:17.637Z,98886.09
2023-03-29T19:55:20.369Z,98889.81
2023-03-29T19:58:23.587Z,98891.59
2023-03-29T20:01:27.291Z,98886.25
2023-03-29T20:04:33.349Z,98890.06
2023-03-29T20:07:36.491Z,98875.28
2023-03-29T20:10:40.837Z,98878.94
2023-03-29T20:13:46.888Z,98874.44
2023-03-29T20:16:50.812Z,98882.00
2023-03-29T20:19:57.944Z,98882.16
2023-03-29T20:23:04.767Z,98886.16
2023-03-29T20:26:08.515Z,98886.03
2023-03-29T20:29:11.344Z,98884.50
2023-03-29T20:32:14.184Z,98894.00
2023-03-29T20:35:20.817Z,98894.06
2023-03-29T20:38:23.578Z,98886.22
2023-03-29T20:41:26.591Z,98892.25
2023-03-29T20:44:29.337Z,98898.69
2023-03-29T20:47:32.256Z,98885.63
2023-03-29T20:50:39.117Z,98902.16
2023-03-29T20:53:52.638Z,98890.28
2023-03-29T20:56:58.340Z,98888.63
2023-03-29T21:00:03.016Z,98890.81
2023-03-29T21:03:08.650Z,98885.94
2023-03-29T21:06:15.218Z,98881.09
2023-03-29T21:09:18.588Z,98870.66
2023-03-29T21:12:21.708Z,98879.78
2023-03-29T21:15:24.431Z,98874.72
2023-03-29T21:18:27.373Z,98882.38
2023-03-29T21:21:33.751Z,98885.03
2023-03-29T21:24:40.953Z,98886.16
2023-03-29T21:27:44.042Z,98898.97
2023-03-29T21:30:48.848Z,98901.78
2023-03-29T21:33:53.101Z,98904.56
2023-03-29T21:36:57.225Z,98899.41
2023-03-29T21:39:59.954Z,98901.69
2023-03-29T21:43:04.129Z,98891.75
2023-03-29T21:46:10.093Z,98902.22
2023-03-29T21:49:12.994Z,98909.91
2023-03-29T21:52:23.326Z,98901.41
2023-03-29T21:55:29.032Z,98905.72
2023-03-29T21:58:31.844Z,98895.09
2023-03-29T22:01:34.644Z,98903.22
2023-03-29T22:04:37.846Z,98910.50
2023-03-29T22:07:42.107Z,98911.50
2023-03-29T22:10:44.862Z,98923.00
2023-03-29T22:13:47.781Z,98917.00
2023-03-29T22:16:50.551Z,98918.16
2023-03-29T22:19:55.890Z,98923.16
2023-03-29T22:23:00.200Z,98918.97
2023-03-29T22:26:05.959Z,98915.94
2023-03-29T22:29:08.978Z,98918.59
2023-03-29T22:32:11.800Z,98914.72
2023-03-29T22:35:14.633Z,98917.53
2023-03-29T22:38:18.759Z,98902.84
2023-03-29T22:41:22.846Z,98906.72
2023-03-29T22:44:25.647Z,98912.53
2023-03-29T22:47:31.082Z,98912.22
2023-03-29T22:50:33.907Z,98902.00
2023-03-29T22:53:38.020Z,98907.56
2023-03-29T22:56:40.805Z,98905.88
2023-03-29T22:59:43.561Z,98904.06
2023-03-29T23:02:46.513Z,98901.41
2023-03-29T23:05:52.385Z,98910.22
2023-03-29T23:08:56.549Z,98906.22
2023-03-29T23:11:59.567Z,98908.38
2023-03-29T23:15:03.272Z,98913.72
2023-03-29T23:18:06.511Z,98911.22
2023-03-29T23:21:17.908Z,98909.53
2023-03-29T23:24:22.919Z,98906.88
2023-03-29T23:27:28.849Z,98908.53
2023-03-29T23:30:32.068Z,98911.13
2023-03-29T23:33:36.239Z,98913.66
2023-03-29T23:36:39.018Z,98908.78
2023-03-29T23:39:43.144Z,98913.13
2023-03-29T23:42:50.197Z,98917.38
2023-03-29T23:45:58.152Z,98915.63
2023-03-29T23:49:05.402Z,98922.22
2023-03-29T23:52:08.208Z,98923.06
2023-03-29T23:55:15.713Z,98929.69
2023-03-29T23:58:18.464Z,98918.97
